createdAt,value
2022-12-04T00:03:45.483Z,12.90
2022-12-04T00:08:46.300Z,13.40
2022-12-04T00:13:46.597Z,12.40
2022-12-04T00:18:46.182Z,12.80
2022-12-04T00:23:46.312Z,12.80
2022-12-04T00:28:46.606Z,12.10
2022-12-04T00:33:46.966Z,12.90
2022-12-04T00:38:47.819Z,12.30
2022-12-04T00:43:47.447Z,12.90
2022-12-04T00:48:48.366Z,12.40
2022-12-04T00:53:48.423Z,11.40
2022-12-04T00:58:48.198Z,12.40
2022-12-04T01:03:48.660Z,12.00
2022-12-04T01:08:48.173Z,12.60
2022-12-04T01:13:48.248Z,11.60
2022-12-04T01:18:48.091Z,14.20
2022-12-04T01:23:47.605Z,13.00
2022-12-04T01:28:47.536Z,11.60
2022-12-04T01:33:47.547Z,11.70
2022-12-04T01:38:46.799Z,12.40
2022-12-04T01:43:46.293Z,11.90
2022-12-04T01:48:51.923Z,11.20
2022-12-04T01:53:54.878Z,11.90
2022-12-04T01:58:59.867Z,9.90
2022-12-04T02:03:59.630Z,9.70
2022-12-04T02:08:59.286Z,10.70
2022-12-04T02:14:09.722Z,11.40
2022-12-04T02:19:34.308Z,10.80
2022-12-04T02:24:54.278Z,12.60
2022-12-04T02:30:04.055Z,10.70
2022-12-04T02:35:10.088Z,10.80
2022-12-04T02:40:18.809Z,10.90
2022-12-04T02:45:26.506Z,10.50
2022-12-04T02:50:28.455Z,10.40
2022-12-04T02:55:36.529Z,9.20
2022-12-04T03:00:38.043Z,9.60
2022-12-04T03:05:44.644Z,10.30
2022-12-04T03:10:54.517Z,9.20
2022-12-04T03:16:03.227Z,10.60
2022-12-04T03:21:10.187Z,9.80
2022-12-04T03:26:20.007Z,10.70
2022-12-04T03:31:26.817Z,10.90
2022-12-04T03:36:32.933Z,11.50
2022-12-04T03:41:50.150Z,10.20
2022-12-04T03:47:00.661Z,10.00
2022-12-04T03:52:08.967Z,9.60
2022-12-04T03:57:15.185Z,11.40
2022-12-04T04:02:21.938Z,9.30
2022-12-04T04:07:34.815Z,10.10
2022-12-04T04:12:42.899Z,9.70
2022-12-04T04:18:06.090Z,9.20
2022-12-04T04:23:25.777Z,9.60
2022-12-04T04:28:37.773Z,9.40
2022-12-04T04:33:47.553Z,10.00
2022-12-04T04:39:00.118Z,9.00
2022-12-04T04:44:13.481Z,8.90
2022-12-04T04:49:16.250Z,9.50
2022-12-04T04:54:17.943Z,10.20
2022-12-04T04:59:17.430Z,9.80
2022-12-04T05:04:16.824Z,8.80
2022-12-04T05:09:16.245Z,8.10
2022-12-04T05:14:14.793Z,9.80
2022-12-04T05:19:30.723Z,9.40
2022-12-04T05:24:30.511Z,8.90
2022-12-04T05:29:34.293Z,8.30
2022-12-04T05:34:35.305Z,9.30
2022-12-04T05:39:34.986Z,9.00
2022-12-04T05:44:34.604Z,9.30
2022-12-04T05:49:36.915Z,9.50
2022-12-04T05:54:36.564Z,9.60
2022-12-04T05:59:35.363Z,9.90
2022-12-04T06:04:34.667Z,8.90
2022-12-04T06:09:33.743Z,8.70
2022-12-04T06:14:39.108Z,8.90
2022-12-04T06:19:39.261Z,8.70
2022-12-04T06:24:39.000Z,8.80
2022-12-04T06:29:37.720Z,9.50
2022-12-04T06:34:37.093Z,8.80
2022-12-04T06:39:36.437Z,7.70
2022-12-04T06:44:36.529Z,8.50
2022-12-04T06:49:36.377Z,9.60
2022-12-04T06:54:35.477Z,8.90
2022-12-04T06:59:35.003Z,8.70
2022-12-04T07:04:34.629Z,8.90
2022-12-04T07:09:33.331Z,8.80
2022-12-04T07:14:32.503Z,9.20
2022-12-04T07:19:31.915Z,9.10
2022-12-04T07:24:31.274Z,9.00
2022-12-04T07:29:30.689Z,9.50
2022-12-04T07:34:30.808Z,8.30
2022-12-04T07:39:29.758Z,9.20
2022-12-04T07:44:31.957Z,8.70
2022-12-04T07:49:31.094Z,8.50
2022-12-04T07:54:30.268Z,9.00
2022-12-04T07:59:29.473Z,7.90
2022-12-04T08:04:28.207Z,8.60
2022-12-04T08:09:27.311Z,8.50
2022-12-04T08:14:26.238Z,9.20
2022-12-04T08:19:26.078Z,8.10
2022-12-04T08:24:25.421Z,9.00
2022-12-04T08:29:24.007Z,8.30
2022-12-04T08:34:22.630Z,10.00
2022-12-04T08:39:21.465Z,10.00
2022-12-04T08:44:21.333Z,9.50
2022-12-04T08:49:20.716Z,8.90
2022-12-04T08:54:19.918Z,9.50
2022-12-04T08:59:19.294Z,10.00
2022-12-04T09:04:18.916Z,9.70
2022-12-04T09:09:17.777Z,9.40
2022-12-04T09:14:16.528Z,9.10
2022-12-04T09:19:15.795Z,11.20
2022-12-04T09:24:14.847Z,10.10
2022-12-04T09:29:16.085Z,8.70
2022-12-04T09:34:15.248Z,9.30
2022-12-04T09:39:14.920Z,9.20
2022-12-04T09:44:23.126Z,9.60
2022-12-04T09:49:29.809Z,9.90
2022-12-04T09:54:35.686Z,8.50
2022-12-04T09:59:36.815Z,9.40
2022-12-04T10:04:37.127Z,9.30
2022-12-04T10:09:50.134Z,9.80
2022-12-04T10:15:05.957Z,8.60
2022-12-04T10:20:19.258Z,10.30
2022-12-04T10:25:24.593Z,9.90
2022-12-04T10:30:28.020Z,8.60
2022-12-04T10:35:31.447Z,8.70
2022-12-04T10:40:39.477Z,9.60
2022-12-04T10:45:39.923Z,9.60
2022-12-04T10:50:40.732Z,9.70
2022-12-04T10:55:40.112Z,9.00
2022-12-04T11:00:40.914Z,10.50
2022-12-04T11:05:55.630Z,9.70
2022-12-04T11:11:03.810Z,9.90
2022-12-04T11:16:04.002Z,10.50
2022-12-04T11:21:14.218Z,10.00
2022-12-04T11:26:15.255Z,10.10
2022-12-04T11:31:21.671Z,10.10
2022-12-04T11:36:28.216Z,10.50
2022-12-04T11:41:33.575Z,9.90
2022-12-04T11:46:35.597Z,9.50
2022-12-04T11:51:53.766Z,9.40
2022-12-04T11:57:04.533Z,10.80
2022-12-04T12:02:35.453Z,9.70
2022-12-04T12:07:50.418Z,10.30
2022-12-04T12:13:06.460Z,10.60
2022-12-04T12:18:29.543Z,9.40
2022-12-04T12:23:52.109Z,10.90
2022-12-04T12:29:23.180Z,9.90
2022-12-04T12:34:34.003Z,9.80
2022-12-04T12:39:44.048Z,8.60
2022-12-04T12:44:54.706Z,9.90
2022-12-04T12:50:02.936Z,9.50
2022-12-04T12:55:18.236Z,9.10
2022-12-04T13:00:23.824Z,9.00
2022-12-04T13:05:30.918Z,10.00
2022-12-04T13:10:37.776Z,8.70
2022-12-04T13:15:46.362Z,8.80
2022-12-04T13:20:55.363Z,8.60
2022-12-04T13:26:05.475Z,9.30
2022-12-04T13:31:21.497Z,9.40
2022-12-04T13:36:55.883Z,9.60
2022-12-04T13:42:03.205Z,9.70
2022-12-04T13:47:06.416Z,9.00
2022-12-04T13:52:21.530Z,7.90
2022-12-04T13:57:28.721Z,8.00
2022-12-04T14:02:35.653Z,9.20
2022-12-04T14:07:39.832Z,8.40
2022-12-04T14:12:44.580Z,9.40
2022-12-04T14:17:45.247Z,8.20
2022-12-04T14:22:48.994Z,8.90
2022-12-04T14:27:52.046Z,9.00
2022-12-04T14:32:54.870Z,8.80
2022-12-04T14:37:59.911Z,8.60
2022-12-04T14:43:00.244Z,7.90
2022-12-04T14:48:24.718Z,8.50
2022-12-04T14:53:37.554Z,9.60
2022-12-04T14:58:41.378Z,8.70
2022-12-04T15:03:48.272Z,8.30
2022-12-04T15:09:17.361Z,8.20
2022-12-04T15:14:18.197Z,8.00
2022-12-04T15:19:22.948Z,8.00
2022-12-04T15:24:25.258Z,8.00
2022-12-04T15:29:29.324Z,8.10
2022-12-04T15:34:39.092Z,8.10
2022-12-04T15:39:39.257Z,8.20
2022-12-04T15:44:39.893Z,8.00
2022-12-04T15:49:39.181Z,9.20
2022-12-04T15:54:43.650Z,8.40
2022-12-04T15:59:42.956Z,8.50
2022-12-04T16:04:45.570Z,9.40
2022-12-04T16:10:03.265Z,8.10
2022-12-04T16:15:04.204Z,8.10
2022-12-04T16:20:06.011Z,8.30
2022-12-04T16:25:05.291Z,8.10
2022-12-04T16:30:05.179Z,7.50
2022-12-04T16:35:04.088Z,8.60
2022-12-04T16:40:06.766Z,8.80
2022-12-04T16:45:15.710Z,8.50
2022-12-04T16:50:15.337Z,7.90
2022-12-04T16:55:27.486Z,7.90
2022-12-04T17:00:26.670Z,8.60
2022-12-04T17:05:29.372Z,7.40
2022-12-04T17:10:29.639Z,7.50
2022-12-04T17:15:29.560Z,7.50
2022-12-04T17:20:28.544Z,8.60
2022-12-04T17:25:27.407Z,7.90
2022-12-04T17:30:31.343Z,7.20
2022-12-04T17:35:34.075Z,8.10
2022-12-04T17:40:33.074Z,7.90
2022-12-04T17:45:32.557Z,7.40
2022-12-04T17:50:32.322Z,7.50
2022-12-04T17:55:31.284Z,7.20
2022-12-04T18:00:30.704Z,7.60
2022-12-04T18:05:31.773Z,7.00
2022-12-04T18:10:30.968Z,8.70
2022-12-04T18:15:30.255Z,7.60
2022-12-04T18:20:29.252Z,8.20
2022-12-04T18:25:28.644Z,7.50
2022-12-04T18:30:37.322Z,8.20
2022-12-04T18:35:37.027Z,7.50
2022-12-04T18:40:37.438Z,7.90
2022-12-04T18:45:36.928Z,6.80
2022-12-04T18:50:35.996Z,5.50
2022-12-04T18:55:39.236Z,7.00
2022-12-04T19:00:39.267Z,7.30
2022-12-04T19:05:47.922Z,7.50
2022-12-04T19:10:46.947Z,6.60
2022-12-04T19:15:48.768Z,6.90
2022-12-04T19:20:48.799Z,7.60
2022-12-04T19:25:55.438Z,7.40
2022-12-04T19:30:55.125Z,7.60
2022-12-04T19:36:04.022Z,7.30
2022-12-04T19:41:13.677Z,6.60
2022-12-04T19:46:15.929Z,6.90
2022-12-04T19:51:19.442Z,6.50
2022-12-04T19:56:22.435Z,7.80
2022-12-04T20:01:25.567Z,7.10
2022-12-04T20:06:29.555Z,7.20
2022-12-04T20:11:30.740Z,7.10
2022-12-04T20:16:33.386Z,7.30
2022-12-04T20:21:33.018Z,7.60
2022-12-04T20:26:37.408Z,7.10
2022-12-04T20:31:39.726Z,7.90
2022-12-04T20:36:44.311Z,6.70
2022-12-04T20:41:43.965Z,6.60
2022-12-04T20:46:45.302Z,7.30
2022-12-04T20:51:48.130Z,8.00
2022-12-04T20:56:49.258Z,7.70
2022-12-04T21:01:49.113Z,7.60
2022-12-04T21:06:49.829Z,7.50
2022-12-04T21:11:52.747Z,7.20
2022-12-04T21:16:53.028Z,7.30
2022-12-04T21:21:53.164Z,7.30
2022-12-04T21:26:52.847Z,6.20
2022-12-04T21:31:51.797Z,7.00
2022-12-04T21:36:50.571Z,7.80
2022-12-04T21:42:07.368Z,6.40
2022-12-04T21:47:07.068Z,7.40
2022-12-04T21:52:06.404Z,6.30
2022-12-04T21:57:05.180Z,6.90
2022-12-04T22:02:04.600Z,6.70
2022-12-04T22:07:04.267Z,6.80
2022-12-04T22:12:14.720Z,6.20
2022-12-04T22:17:23.212Z,6.20
2022-12-04T22:22:22.662Z,6.60
2022-12-04T22:27:22.373Z,7.40
2022-12-04T22:32:22.365Z,6.40
2022-12-04T22:37:21.573Z,6.30
2022-12-04T22:42:20.652Z,5.80
2022-12-04T22:47:22.771Z,6.90
2022-12-04T22:52:25.036Z,6.70
2022-12-04T22:57:24.743Z,7.00
2022-12-04T23:02:23.947Z,7.00
2022-12-04T23:07:23.984Z,6.60
2022-12-04T23:12:24.055Z,6.60
2022-12-04T23:17:23.181Z,7.00
2022-12-04T23:22:22.522Z,5.60
2022-12-04T23:27:21.849Z,6.20
2022-12-04T23:32:21.671Z,7.00
2022-12-04T23:37:21.076Z,6.40
2022-12-04T23:42:19.616Z,7.70
2022-12-04T23:47:19.473Z,6.90
2022-12-04T23:52:18.506Z,7.20
2022-12-04T23:57:18.114Z,6.90
